createdAt,value
2018-03-18T00:00:05.981Z,-2.79
2018-03-18T00:02:36.449Z,-2.83
2018-03-18T00:05:02.213Z,-2.91
2018-03-18T00:07:27.945Z,-2.91
2018-03-18T00:09:53.700Z,-2.89
2018-03-18T00:12:19.442Z,-2.88
2018-03-18T00:14:45.156Z,-2.91
2018-03-18T00:17:10.889Z,-2.91
2018-03-18T00:19:36.630Z,-2.88
2018-03-18T00:22:02.349Z,-2.90
2018-03-18T00:24:28.070Z,-2.94
2018-03-18T00:26:53.796Z,-2.91
2018-03-18T00:29:19.514Z,-2.96
2018-03-18T00:31:45.247Z,-2.99
2018-03-18T00:34:10.967Z,-2.97
2018-03-18T00:36:36.706Z,-3.03
2018-03-18T00:39:02.437Z,-3.00
2018-03-18T00:41:28.165Z,-3.00
2018-03-18T00:43:53.920Z,-3.00
2018-03-18T00:46:19.672Z,-2.99
2018-03-18T00:48:45.398Z,-3.03
2018-03-18T00:51:11.126Z,-3.10
2018-03-18T00:53:36.849Z,-3.09
2018-03-18T00:56:02.577Z,-3.04
2018-03-18T00:58:28.305Z,-3.05
2018-03-18T01:00:54.043Z,-3.04
2018-03-18T01:03:19.773Z,-3.06
2018-03-18T01:05:45.490Z,-3.12
2018-03-18T01:08:11.223Z,-3.08
2018-03-18T01:10:36.953Z,-3.03
2018-03-18T01:13:02.701Z,-3.00
2018-03-18T01:15:28.485Z,-3.05
2018-03-18T01:17:54.289Z,-3.08
2018-03-18T01:20:20.086Z,-3.09
2018-03-18T01:22:45.878Z,-3.19
2018-03-18T01:25:11.699Z,-3.13
2018-03-18T01:27:37.430Z,-3.11
2018-03-18T01:30:03.224Z,-3.18
2018-03-18T01:32:29.032Z,-3.09
2018-03-18T01:34:54.744Z,-3.11
2018-03-18T01:37:20.562Z,-3.12
2018-03-18T01:39:46.319Z,-3.15
2018-03-18T01:42:12.119Z,-3.17
2018-03-18T01:44:37.905Z,-3.19
2018-03-18T01:47:03.700Z,-3.24
2018-03-18T01:49:29.485Z,-3.26
2018-03-18T01:51:55.203Z,-3.22
2018-03-18T01:54:20.941Z,-3.18
2018-03-18T01:56:46.669Z,-3.17
2018-03-18T01:59:12.398Z,-3.19
2018-03-18T02:01:38.118Z,-3.19
2018-03-18T02:04:03.957Z,-3.24
2018-03-18T02:06:29.833Z,-3.29
2018-03-18T02:08:55.671Z,-3.29
2018-03-18T02:11:21.482Z,-3.30
2018-03-18T02:13:47.383Z,-3.32
2018-03-18T02:16:13.106Z,-3.27
2018-03-18T02:18:38.828Z,-3.34
2018-03-18T02:21:04.680Z,-3.36
2018-03-18T02:23:30.568Z,-3.29
2018-03-18T02:25:56.322Z,-3.36
2018-03-18T02:28:22.187Z,-3.42
2018-03-18T02:30:47.923Z,-3.37
2018-03-18T02:33:13.784Z,-3.35
2018-03-18T02:35:39.659Z,-3.36
2018-03-18T02:38:05.566Z,-3.43
2018-03-18T02:40:31.404Z,-3.47
2018-03-18T02:42:57.132Z,-3.43
2018-03-18T02:45:22.886Z,-3.41
2018-03-18T02:47:48.732Z,-3.45
2018-03-18T02:50:14.624Z,-3.45
2018-03-18T02:52:40.505Z,-3.44
2018-03-18T02:55:06.250Z,-3.43
2018-03-18T02:57:32.123Z,-3.43
2018-03-18T02:59:58.023Z,-3.45
2018-03-18T03:02:23.862Z,-3.48
2018-03-18T03:04:49.719Z,-3.46
2018-03-18T03:07:15.433Z,-3.45
2018-03-18T03:09:41.170Z,-3.47
2018-03-18T03:12:06.892Z,-3.53
2018-03-18T03:14:32.606Z,-3.54
2018-03-18T03:16:58.319Z,-3.55
2018-03-18T03:19:24.045Z,-3.51
2018-03-18T03:21:49.765Z,-3.56
2018-03-18T03:24:15.497Z,-3.64
2018-03-18T03:26:41.221Z,-3.68
2018-03-18T03:29:06.945Z,-3.68
2018-03-18T03:31:32.687Z,-3.66
2018-03-18T03:33:58.418Z,-3.66
2018-03-18T03:36:24.155Z,-3.72
2018-03-18T03:38:49.874Z,-3.76
2018-03-18T03:41:15.613Z,-3.77
2018-03-18T03:43:41.341Z,-3.77
2018-03-18T03:46:07.073Z,-3.82
2018-03-18T03:48:32.787Z,-3.84
2018-03-18T03:50:58.504Z,-3.79
2018-03-18T03:53:24.219Z,-3.86
2018-03-18T03:55:49.938Z,-3.93
2018-03-18T03:58:15.649Z,-3.92
2018-03-18T04:00:41.378Z,-3.89
2018-03-18T04:03:07.108Z,-3.97
2018-03-18T04:05:32.837Z,-3.94
2018-03-18T04:07:58.557Z,-3.96
2018-03-18T04:10:24.299Z,-4.01
2018-03-18T04:12:50.014Z,-3.96
2018-03-18T04:15:15.749Z,-4.03
2018-03-18T04:17:41.468Z,-4.02
2018-03-18T04:20:07.198Z,-4.02
2018-03-18T04:22:32.926Z,-3.99
2018-03-18T04:24:58.661Z,-4.05
2018-03-18T04:27:24.386Z,-4.11
2018-03-18T04:29:50.105Z,-4.04
2018-03-18T04:32:15.827Z,-4.11
2018-03-18T04:34:41.545Z,-4.06
2018-03-18T04:37:07.265Z,-4.06
2018-03-18T04:39:33.014Z,-4.07
2018-03-18T04:41:58.733Z,-4.08
2018-03-18T04:44:24.453Z,-4.08
2018-03-18T04:46:50.182Z,-4.11
2018-03-18T04:49:15.899Z,-4.12
2018-03-18T04:51:41.627Z,-4.12
2018-03-18T04:54:07.349Z,-4.13
2018-03-18T04:56:33.081Z,-4.10
2018-03-18T04:58:58.816Z,-4.12
2018-03-18T05:01:24.545Z,-4.19
2018-03-18T05:03:50.262Z,-4.10
2018-03-18T05:06:15.978Z,-4.12
2018-03-18T05:08:41.690Z,-4.11
2018-03-18T05:11:07.413Z,-4.15
2018-03-18T05:13:33.137Z,-4.12
2018-03-18T05:15:58.855Z,-4.11
2018-03-18T05:18:24.589Z,-4.06
2018-03-18T05:20:50.410Z,-4.06
2018-03-18T05:23:16.149Z,-4.10
2018-03-18T05:25:41.870Z,-4.10
2018-03-18T05:28:07.612Z,-4.13
2018-03-18T05:30:33.325Z,-4.10
2018-03-18T05:32:59.058Z,-4.08
2018-03-18T05:35:24.778Z,-4.09
2018-03-18T05:37:50.517Z,-4.02
2018-03-18T05:40:16.239Z,-4.06
2018-03-18T05:42:41.979Z,-4.04
2018-03-18T05:45:07.711Z,-4.01
2018-03-18T05:47:33.449Z,-4.00
2018-03-18T05:49:59.161Z,-3.97
2018-03-18T05:52:24.886Z,-4.06
2018-03-18T05:54:50.619Z,-4.04
2018-03-18T05:57:16.355Z,-4.02
2018-03-18T05:59:42.070Z,-3.95
2018-03-18T06:02:07.786Z,-3.92
2018-03-18T06:04:33.510Z,-3.88
2018-03-18T06:06:59.226Z,-3.87
2018-03-18T06:09:24.960Z,-3.83
2018-03-18T06:11:50.674Z,-3.88
2018-03-18T06:14:16.389Z,-3.86
2018-03-18T06:16:42.119Z,-3.84
2018-03-18T06:19:07.854Z,-3.79
2018-03-18T06:21:33.574Z,-3.76
2018-03-18T06:23:59.319Z,-3.70
2018-03-18T06:26:25.054Z,-3.70
2018-03-18T06:28:50.790Z,-3.66
2018-03-18T06:31:16.514Z,-3.64
2018-03-18T06:33:42.241Z,-3.61
2018-03-18T06:36:07.958Z,-3.59
2018-03-18T06:38:33.685Z,-3.55
2018-03-18T06:40:59.403Z,-3.53
2018-03-18T06:43:25.138Z,-3.49
2018-03-18T06:45:50.890Z,-3.45
2018-03-18T06:48:16.607Z,-3.44
2018-03-18T06:50:42.350Z,-3.35
2018-03-18T06:53:08.076Z,-3.30
2018-03-18T06:55:33.809Z,-3.21
2018-03-18T06:57:59.539Z,-3.16
2018-03-18T07:00:25.265Z,-3.07
2018-03-18T07:02:50.982Z,-3.07
2018-03-18T07:05:16.780Z,-2.94
2018-03-18T07:07:42.478Z,-3.03
2018-03-18T07:10:08.205Z,-2.81
2018-03-18T07:12:33.917Z,-2.88
2018-03-18T07:14:59.644Z,-2.69
2018-03-18T07:17:25.359Z,-2.72
2018-03-18T07:19:51.077Z,-2.71
2018-03-18T07:22:16.784Z,-2.50
2018-03-18T07:24:42.492Z,-2.55
2018-03-18T07:27:08.211Z,-2.75
2018-03-18T07:29:33.927Z,-2.65
2018-03-18T07:31:59.650Z,-2.32
2018-03-18T07:34:25.364Z,-2.20
2018-03-18T07:36:51.093Z,-2.22
2018-03-18T07:39:16.880Z,-2.23
2018-03-18T07:41:42.565Z,-2.15
2018-03-18T07:44:08.285Z,-2.28
2018-03-18T07:46:34.009Z,-1.98
2018-03-18T07:48:59.734Z,-2.08
2018-03-18T07:51:25.463Z,-1.93
2018-03-18T07:53:51.178Z,-1.78
2018-03-18T07:56:16.910Z,-1.81
2018-03-18T07:58:42.644Z,-1.57
2018-03-18T08:01:08.470Z,-1.51
2018-03-18T08:03:34.188Z,-1.81
2018-03-18T08:05:59.918Z,-1.80
2018-03-18T08:08:25.649Z,-1.65
2018-03-18T08:10:51.397Z,-1.75
2018-03-18T08:13:17.129Z,-1.29
2018-03-18T08:15:42.854Z,-1.33
2018-03-18T08:18:08.577Z,-1.46
2018-03-18T08:20:34.314Z,-1.48
2018-03-18T08:23:00.046Z,-1.48
2018-03-18T08:25:25.774Z,-1.41
2018-03-18T08:27:51.518Z,-1.52
2018-03-18T08:30:17.233Z,-1.67
2018-03-18T08:32:42.974Z,-1.66
2018-03-18T08:35:08.710Z,-1.22
2018-03-18T08:37:34.470Z,-1.29
2018-03-18T08:40:00.199Z,-1.07
2018-03-18T08:42:27.745Z,-1.25
2018-03-18T08:44:53.473Z,-0.91
2018-03-18T08:47:19.207Z,-0.62
2018-03-18T08:49:44.927Z,-0.88
2018-03-18T08:52:10.662Z,-0.99
2018-03-18T08:54:36.378Z,-1.15
2018-03-18T08:57:02.110Z,-1.02
2018-03-18T08:59:27.839Z,-0.88
2018-03-18T09:01:53.566Z,-0.82
2018-03-18T09:04:19.300Z,-0.91
2018-03-18T09:06:45.021Z,-0.68
2018-03-18T09:09:10.733Z,-0.58
2018-03-18T09:11:36.449Z,-0.33
2018-03-18T09:14:02.171Z,-0.79
2018-03-18T09:16:27.898Z,-0.62
2018-03-18T09:18:53.630Z,-0.67
2018-03-18T09:21:19.353Z,-0.59
2018-03-18T09:23:45.078Z,-0.56
2018-03-18T09:26:10.807Z,-0.61
2018-03-18T09:28:36.524Z,-0.40
2018-03-18T09:31:02.239Z,-0.41
2018-03-18T09:33:27.964Z,-0.36
2018-03-18T09:35:53.675Z,-0.28
2018-03-18T09:38:19.405Z,-0.03
2018-03-18T09:40:45.115Z,-0.17
2018-03-18T09:43:10.850Z,-0.26
2018-03-18T09:45:36.582Z,-0.13
2018-03-18T09:48:02.306Z,0.06
2018-03-18T09:50:28.030Z,0.05
2018-03-18T09:52:53.759Z,0.06
2018-03-18T09:55:19.485Z,-0.16
2018-03-18T09:57:45.202Z,-0.05
2018-03-18T10:00:10.919Z,0.17
2018-03-18T10:02:36.650Z,0.64
2018-03-18T10:05:02.371Z,0.21
2018-03-18T10:07:28.109Z,0.32
2018-03-18T10:09:53.825Z,0.17
2018-03-18T10:12:19.542Z,0.43
2018-03-18T10:14:45.270Z,0.79
2018-03-18T10:17:10.997Z,0.57
2018-03-18T10:19:36.714Z,0.55
2018-03-18T10:22:02.434Z,0.37
2018-03-18T10:24:28.166Z,0.45
2018-03-18T10:26:53.891Z,0.32
2018-03-18T10:29:19.720Z,0.52
2018-03-18T10:31:45.362Z,0.44
2018-03-18T10:34:11.082Z,0.39
2018-03-18T10:36:36.814Z,0.28
2018-03-18T10:39:02.564Z,0.73
2018-03-18T10:41:28.298Z,0.68
2018-03-18T10:43:54.018Z,0.91
2018-03-18T10:46:19.745Z,0.36
2018-03-18T10:48:45.494Z,0.88
2018-03-18T10:51:11.195Z,0.98
2018-03-18T10:53:36.921Z,0.60
2018-03-18T10:56:02.661Z,0.82
2018-03-18T10:58:28.521Z,0.76
2018-03-18T11:00:54.265Z,0.46
2018-03-18T11:03:20.005Z,0.53
2018-03-18T11:05:45.727Z,0.91
2018-03-18T11:08:11.454Z,0.79
2018-03-18T11:10:38.133Z,0.77
2018-03-18T11:13:03.857Z,0.81
2018-03-18T11:15:29.582Z,0.81
2018-03-18T11:17:55.300Z,1.27
2018-03-18T11:20:21.025Z,1.22
2018-03-18T11:22:46.748Z,1.28
2018-03-18T11:25:12.474Z,0.82
2018-03-18T11:27:38.193Z,0.98
2018-03-18T11:30:03.983Z,1.06
2018-03-18T11:32:29.745Z,0.85
2018-03-18T11:34:55.474Z,0.82
2018-03-18T11:37:21.186Z,1.14
2018-03-18T11:39:46.917Z,1.41
2018-03-18T11:42:12.638Z,1.47
2018-03-18T11:44:38.382Z,1.50
2018-03-18T11:47:04.122Z,1.45
2018-03-18T11:49:30.067Z,1.11
2018-03-18T11:51:55.949Z,1.25
2018-03-18T11:54:21.917Z,0.64
2018-03-18T11:56:47.577Z,1.12
2018-03-18T11:59:13.422Z,0.91
2018-03-18T12:01:39.339Z,1.06
2018-03-18T12:04:05.264Z,1.15
2018-03-18T12:06:31.175Z,0.98
2018-03-18T12:08:58.832Z,1.01
2018-03-18T12:11:24.708Z,1.16
2018-03-18T12:13:51.248Z,1.43
2018-03-18T12:16:18.760Z,1.60
2018-03-18T12:18:47.094Z,1.25
2018-03-18T12:21:13.972Z,0.91
2018-03-18T12:23:40.044Z,1.42
2018-03-18T12:26:05.793Z,1.50
2018-03-18T12:28:32.930Z,1.19
2018-03-18T12:31:00.111Z,1.36
2018-03-18T12:33:26.020Z,1.01
2018-03-18T12:35:52.164Z,1.06
2018-03-18T12:38:19.074Z,0.85
2018-03-18T12:40:53.337Z,1.09
2018-03-18T12:43:27.619Z,1.40
2018-03-18T12:45:56.463Z,1.33
2018-03-18T12:48:23.926Z,1.54
2018-03-18T12:50:50.306Z,1.18
2018-03-18T12:53:16.562Z,1.02
2018-03-18T12:55:44.157Z,1.07
2018-03-18T12:58:11.683Z,1.40
2018-03-18T13:00:38.839Z,1.58
2018-03-18T13:03:06.911Z,1.72
2018-03-18T13:05:35.158Z,1.22
2018-03-18T13:08:00.929Z,1.20
2018-03-18T13:10:28.160Z,1.40
2018-03-18T13:12:56.737Z,1.46
2018-03-18T13:15:22.562Z,1.75
2018-03-18T13:17:48.322Z,1.81
2018-03-18T13:20:18.231Z,1.46
2018-03-18T13:22:45.010Z,1.22
2018-03-18T13:25:11.057Z,1.08
2018-03-18T13:27:37.562Z,1.32
2018-03-18T13:30:04.254Z,1.36
2018-03-18T13:32:31.012Z,1.78
2018-03-18T13:35:05.404Z,1.70
2018-03-18T13:37:35.558Z,1.43
2018-03-18T13:40:03.467Z,1.20
2018-03-18T13:42:30.623Z,0.90
2018-03-18T13:44:57.129Z,0.80
2018-03-18T13:47:24.730Z,0.65
2018-03-18T13:49:51.415Z,0.98
2018-03-18T13:52:17.150Z,0.73
2018-03-18T13:54:43.209Z,0.81
2018-03-18T13:57:09.009Z,0.55
2018-03-18T13:59:35.342Z,0.72
2018-03-18T14:02:01.249Z,0.97
2018-03-18T14:04:27.496Z,0.83
2018-03-18T14:06:53.535Z,0.79
2018-03-18T14:09:19.676Z,0.57
2018-03-18T14:11:45.645Z,0.82
2018-03-18T14:14:11.590Z,0.53
2018-03-18T14:16:37.584Z,0.50
2018-03-18T14:19:03.655Z,0.24
2018-03-18T14:21:29.614Z,0.42
2018-03-18T14:23:55.935Z,0.54
2018-03-18T14:26:21.749Z,0.80
2018-03-18T14:28:47.569Z,0.49
2018-03-18T14:31:13.892Z,0.46
2018-03-18T14:33:39.899Z,0.55
2018-03-18T14:36:05.920Z,0.59
2018-03-18T14:38:32.142Z,0.39
2018-03-18T14:40:58.180Z,0.44
2018-03-18T14:43:24.108Z,0.33
2018-03-18T14:45:50.083Z,0.34
2018-03-18T14:48:15.987Z,0.38
2018-03-18T14:50:42.208Z,0.22
2018-03-18T14:53:08.098Z,0.39
2018-03-18T14:55:34.026Z,0.40
2018-03-18T14:58:00.131Z,0.38
2018-03-18T15:00:25.904Z,0.23
2018-03-18T15:02:52.283Z,0.33
2018-03-18T15:05:18.299Z,0.33
2018-03-18T15:07:44.377Z,0.36
2018-03-18T15:10:10.497Z,0.34
2018-03-18T15:12:36.646Z,0.21
2018-03-18T15:15:02.702Z,0.32
2018-03-18T15:17:28.992Z,0.16
2018-03-18T15:19:55.118Z,0.13
2018-03-18T15:22:21.514Z,0.29
2018-03-18T15:24:47.497Z,0.15
2018-03-18T15:27:13.811Z,0.19
2018-03-18T15:29:40.198Z,0.26
2018-03-18T15:32:06.517Z,0.18
2018-03-18T15:34:32.894Z,0.14
2018-03-18T15:36:58.772Z,0.07
2018-03-18T15:39:25.068Z,0.00
2018-03-18T15:41:52.353Z,0.01
2018-03-18T15:44:19.430Z,0.02
2018-03-18T15:46:45.249Z,0.09
2018-03-18T15:49:11.741Z,0.00
2018-03-18T15:51:38.464Z,0.01
2018-03-18T15:54:05.139Z,-0.06
2018-03-18T15:56:32.067Z,0.02
2018-03-18T15:58:58.673Z,-0.07
2018-03-18T16:01:25.861Z,0.04
2018-03-18T16:03:52.669Z,-0.01
2018-03-18T16:06:19.824Z,-0.21
2018-03-18T16:08:45.558Z,-0.15
2018-03-18T16:11:12.792Z,-0.23
2018-03-18T16:13:39.981Z,-0.31
2018-03-18T16:16:06.429Z,-0.21
2018-03-18T16:18:33.228Z,-0.26
2018-03-18T16:21:00.522Z,-0.36
2018-03-18T16:23:27.433Z,-0.36
2018-03-18T16:25:54.469Z,-0.40
2018-03-18T16:28:21.368Z,-0.40
2018-03-18T16:31:00.641Z,-0.37
2018-03-18T16:33:27.486Z,-0.43
2018-03-18T16:35:54.599Z,-0.51
2018-03-18T16:38:20.699Z,-0.49
2018-03-18T16:40:46.622Z,-0.55
2018-03-18T16:43:12.352Z,-0.56
2018-03-18T16:45:38.094Z,-0.59
2018-03-18T16:48:03.843Z,-0.58
2018-03-18T16:50:29.573Z,-0.62
2018-03-18T16:52:56.467Z,-0.63
2018-03-18T16:55:22.217Z,-0.60
2018-03-18T16:57:49.108Z,-0.61
2018-03-18T17:00:15.523Z,-0.63
2018-03-18T17:02:42.286Z,-0.71
2018-03-18T17:05:08.758Z,-0.70
2018-03-18T17:07:35.003Z,-0.74
2018-03-18T17:10:00.746Z,-0.77
2018-03-18T17:12:26.516Z,-0.79
2018-03-18T17:14:52.236Z,-0.80
2018-03-18T17:17:17.994Z,-0.80
2018-03-18T17:19:44.749Z,-0.81
2018-03-18T17:22:11.408Z,-0.85
2018-03-18T17:24:37.780Z,-0.84
2018-03-18T17:27:05.309Z,-0.91
2018-03-18T17:29:31.039Z,-0.90
2018-03-18T17:31:58.268Z,-0.94
2018-03-18T17:34:24.849Z,-0.91
2018-03-18T17:36:51.550Z,-0.99
2018-03-18T17:39:18.622Z,-0.93
2018-03-18T17:41:45.107Z,-0.95
2018-03-18T17:44:23.222Z,-1.00
2018-03-18T17:47:01.462Z,-0.95
2018-03-18T17:49:39.868Z,-1.08
2018-03-18T17:52:17.986Z,-1.01
2018-03-18T17:54:56.170Z,-0.97
2018-03-18T17:57:21.986Z,-0.96
2018-03-18T17:59:47.666Z,-1.00
2018-03-18T18:02:13.407Z,-1.07
2018-03-18T18:04:39.154Z,-1.00
2018-03-18T18:07:04.903Z,-1.03
2018-03-18T18:09:30.629Z,-1.07
2018-03-18T18:11:56.421Z,-1.10
2018-03-18T18:14:22.271Z,-1.12
2018-03-18T18:16:47.945Z,-1.12
2018-03-18T18:19:13.678Z,-1.12
2018-03-18T18:21:39.426Z,-1.14
2018-03-18T18:24:05.178Z,-1.10
2018-03-18T18:26:30.918Z,-1.12
2018-03-18T18:28:56.706Z,-1.16
2018-03-18T18:31:22.440Z,-1.21
2018-03-18T18:33:48.295Z,-1.12
2018-03-18T18:36:14.029Z,-1.12
2018-03-18T18:38:39.790Z,-1.12
2018-03-18T18:41:05.538Z,-1.19
2018-03-18T18:43:31.311Z,-1.19
2018-03-18T18:45:57.096Z,-1.18
2018-03-18T18:48:22.923Z,-1.22
2018-03-18T18:50:48.891Z,-1.13
2018-03-18T18:53:14.884Z,-1.18
2018-03-18T18:55:40.616Z,-1.25
2018-03-18T18:58:06.415Z,-1.29
2018-03-18T19:00:32.201Z,-1.19
2018-03-18T19:02:58.004Z,-1.21
2018-03-18T19:05:23.655Z,-1.22
2018-03-18T19:07:49.378Z,-1.27
2018-03-18T19:10:15.155Z,-1.20
2018-03-18T19:12:40.855Z,-1.24
2018-03-18T19:15:06.595Z,-1.29
2018-03-18T19:17:32.338Z,-1.38
2018-03-18T19:19:58.087Z,-1.37
2018-03-18T19:22:23.822Z,-1.39
2018-03-18T19:24:49.582Z,-1.37
2018-03-18T19:27:15.311Z,-1.40
2018-03-18T19:29:41.034Z,-1.39
2018-03-18T19:32:06.760Z,-1.37
2018-03-18T19:34:32.481Z,-1.40
2018-03-18T19:36:58.234Z,-1.36
2018-03-18T19:39:23.970Z,-1.42
2018-03-18T19:41:49.699Z,-1.41
2018-03-18T19:44:15.429Z,-1.36
2018-03-18T19:46:41.178Z,-1.40
2018-03-18T19:49:06.910Z,-1.43
2018-03-18T19:51:32.646Z,-1.53
2018-03-18T19:53:58.390Z,-1.43
2018-03-18T19:56:24.137Z,-1.36
2018-03-18T19:58:49.854Z,-1.36
2018-03-18T20:01:15.612Z,-1.41
2018-03-18T20:03:41.342Z,-1.49
2018-03-18T20:06:07.087Z,-1.50
2018-03-18T20:08:32.829Z,-1.54
2018-03-18T20:10:58.570Z,-1.62
2018-03-18T20:13:24.305Z,-1.59
2018-03-18T20:15:50.035Z,-1.48
2018-03-18T20:18:15.818Z,-1.52
2018-03-18T20:20:41.550Z,-1.45
2018-03-18T20:23:07.307Z,-1.60
2018-03-18T20:25:33.061Z,-1.53
2018-03-18T20:27:58.821Z,-1.56
2018-03-18T20:30:24.578Z,-1.47
2018-03-18T20:32:50.337Z,-1.57
2018-03-18T20:35:16.065Z,-1.55
2018-03-18T20:37:41.805Z,-1.59
2018-03-18T20:40:07.556Z,-1.59
2018-03-18T20:42:33.309Z,-1.66
2018-03-18T20:44:59.044Z,-1.59
2018-03-18T20:47:24.827Z,-1.68
2018-03-18T20:49:50.553Z,-1.73
2018-03-18T20:52:16.285Z,-1.75
2018-03-18T20:54:42.051Z,-1.76
2018-03-18T20:57:07.796Z,-1.71
2018-03-18T20:59:33.550Z,-1.63
2018-03-18T21:01:59.313Z,-1.66
2018-03-18T21:04:25.058Z,-1.79
2018-03-18T21:06:50.806Z,-1.74
2018-03-18T21:09:16.566Z,-1.82
2018-03-18T21:11:42.316Z,-1.86
2018-03-18T21:14:08.062Z,-1.77
2018-03-18T21:16:33.806Z,-1.85
2018-03-18T21:18:59.545Z,-1.88
2018-03-18T21:21:25.286Z,-1.89
2018-03-18T21:23:51.034Z,-1.87
2018-03-18T21:26:16.774Z,-1.88
2018-03-18T21:28:42.542Z,-1.90
2018-03-18T21:31:08.274Z,-1.85
2018-03-18T21:33:34.019Z,-2.01
2018-03-18T21:35:59.767Z,-1.93
2018-03-18T21:38:25.497Z,-1.87
2018-03-18T21:40:51.253Z,-1.94
2018-03-18T21:43:16.985Z,-2.05
2018-03-18T21:45:42.733Z,-2.06
2018-03-18T21:48:08.474Z,-2.00
2018-03-18T21:50:34.216Z,-2.06
2018-03-18T21:52:59.946Z,-1.98
2018-03-18T21:55:25.701Z,-2.03
2018-03-18T21:57:51.446Z,-2.01
2018-03-18T22:00:17.201Z,-1.98
2018-03-18T22:02:42.934Z,-2.01
2018-03-18T22:05:08.673Z,-2.00
2018-03-18T22:07:34.435Z,-1.99
2018-03-18T22:10:00.169Z,-2.08
2018-03-18T22:12:25.915Z,-2.05
2018-03-18T22:14:51.637Z,-2.06
2018-03-18T22:17:17.425Z,-2.11
2018-03-18T22:19:43.158Z,-2.13
2018-03-18T22:22:08.919Z,-2.22
2018-03-18T22:24:34.646Z,-2.13
2018-03-18T22:27:00.385Z,-2.11
2018-03-18T22:29:26.114Z,-2.06
2018-03-18T22:31:51.844Z,-2.01
2018-03-18T22:34:17.580Z,-2.12
2018-03-18T22:36:43.318Z,-2.11
2018-03-18T22:39:09.050Z,-2.15
2018-03-18T22:41:34.797Z,-2.14
2018-03-18T22:44:00.525Z,-2.13
2018-03-18T22:46:26.275Z,-2.20
2018-03-18T22:48:52.001Z,-2.13
2018-03-18T22:51:17.755Z,-2.13
2018-03-18T22:53:43.489Z,-2.13
2018-03-18T22:56:09.247Z,-2.13
2018-03-18T22:58:34.986Z,-2.19
2018-03-18T23:01:00.719Z,-2.17
2018-03-18T23:03:26.458Z,-2.21
2018-03-18T23:05:52.499Z,-2.28
2018-03-18T23:08:18.234Z,-2.31
2018-03-18T23:10:43.970Z,-2.32
2018-03-18T23:13:09.714Z,-2.25
2018-03-18T23:15:35.439Z,-2.29
2018-03-18T23:18:01.185Z,-2.26
2018-03-18T23:20:26.915Z,-2.30
2018-03-18T23:22:52.646Z,-2.30
2018-03-18T23:25:18.382Z,-2.37
2018-03-18T23:27:44.122Z,-2.41
2018-03-18T23:30:09.853Z,-2.34
2018-03-18T23:32:35.601Z,-2.37
2018-03-18T23:35:01.343Z,-2.46
2018-03-18T23:37:27.073Z,-2.50
2018-03-18T23:39:52.805Z,-2.50
2018-03-18T23:42:18.533Z,-2.46
2018-03-18T23:44:44.267Z,-2.49
2018-03-18T23:47:10.005Z,-2.43
2018-03-18T23:49:35.749Z,-2.42
2018-03-18T23:52:01.486Z,-2.52
2018-03-18T23:54:27.231Z,-2.47
2018-03-18T23:56:52.954Z,-2.53
2018-03-18T23:59:18.695Z,-2.52
